Merle K (Mudhole) Smith Airport
PACV : now visible

Aeroporto :











RITROVATECI SU...

 
LOGIN :

Iscrizione | Disclaimer

   EN    FR    IT 

 









Sommario :    VFR   VFR Marginale   IFR   IFR Intensivo   IFR Molto Intensivo
Visibilità : 
Base nubi : 
>= 8 km
>= 3000ft
5 / 8 km
1000 / 3000 ft
1500m / 5 km
500 / 1000 ft
800 / 1500m
200 / 500 ft
< 800m
< 200 ft
Simboli :   Temporali  Nebbia  Neve Forte  Precipitazioni Forti  Vento > 20 kt






- Altitudine del aeroporto : 54 ft
- Codice IATA : CDV


PACV - Merle K (Mudhole) Smith

ULTIMO METAR :
  • 021053Z 00000KT 10SM FEW043 BKN070 OVC090 06/04 A2964 RMK AO2 SLP037 T00610039

METARs OBSOLETI :
  • 020953Z 07003KT 10SM FEW043 OVC075 06/04 A2964 RMK AO2 SLP037 T00560039
  • 020853Z 00000KT 10SM SCT036 SCT060 BKN080 06/03 A2964 RMK AO2 SLP038 T00610033 401330061 56003

TAF PACV
Valido dal 02 a 12 ore il 03 a 12 ore UTC


021123Z 0212/0312 10008KT P6SM VCSH SCT025 OVC035
FM030000 11010KT P6SM -RA SCT015 OVC025
FIR PAZA / America del Nord



MetMap, La meteo Aeronautica in un colpo d'occhio ! - Copyright ORBIFLY Dicembre 2007 - Disclaimer

ORBIFLY MET'MAP TEAM :

Programmazione e sviluppo : Alexandra Zaïnal
Concezione : Baudouin d'Aumeries
Aiuto per la programmazione : Marc-Olivier Méhu
Supporto tecnico e logistico : Manuel Goepfert
Aiuto per la traduzione : Arnaldo La Scala

Contatto : metmap@orbifly.com




FONTI E CREDITI :

   NOAA       Earth
Advisory